Time;durP1;ratioP1;P1;durP2;ratioP2;P2;SDS_P1;SDS_P2;PMS_P1;PMS_P2;Temp;Humidity;BMP_temperature;BMP_pressure;BME280_temperature;BME280_humidity;BME280_pressure;Samples;Min_cycle;Max_cycle;Signal;HPM_P1;HPM_P2
2023/05/29 00:00:20;;;;;;;9.23;4.97;;;11.20;99.90;;;;;;5041739;28;20037;-75
2023/05/29 00:02:46;;;;;;;9.48;5.13;;;11.20;99.90;;;;;;5041874;28;20060;-75
2023/05/29 00:05:12;;;;;;;9.05;4.97;;;11.20;99.90;;;;;;5043609;28;20087;-75
2023/05/29 00:07:39;;;;;;;5.68;3.80;;;11.30;99.90;;;;;;5042349;28;20057;-75
2023/05/29 00:10:06;;;;;;;7.50;4.82;;;11.30;99.90;;;;;;5042114;28;20044;-75
2023/05/29 00:12:32;;;;;;;7.00;4.13;;;11.30;99.90;;;;;;5041523;28;20025;-74
2023/05/29 00:14:57;;;;;;;8.30;4.68;;;11.30;99.90;;;;;;5041773;28;20026;-74
2023/05/29 00:17:24;;;;;;;7.35;4.20;;;11.30;99.90;;;;;;5042142;28;20037;-74
2023/05/29 00:19:50;;;;;;;10.15;4.30;;;11.30;99.90;;;;;;5042515;28;20401;-74
2023/05/29 00:22:22;;;;;;;10.43;5.55;;;11.20;99.90;;;;;;5041848;28;20026;-75
2023/05/29 00:24:47;;;;;;;9.60;4.85;;;11.20;99.90;;;;;;5041943;28;20033;-75
2023/05/29 00:27:13;;;;;;;9.50;5.28;;;11.10;99.90;;;;;;5042430;28;20034;-75
2023/05/29 00:29:39;;;;;;;7.78;5.65;;;11.10;99.90;;;;;;5042363;28;20462;-75
2023/05/29 00:32:05;;;;;;;9.00;4.97;;;11.00;99.90;;;;;;5023653;28;20037;-75
2023/05/29 00:34:31;;;;;;;10.25;4.93;;;11.00;99.90;;;;;;5041620;28;20029;-75
2023/05/29 00:36:57;;;;;;;8.68;5.10;;;10.90;99.90;;;;;;5041411;28;20462;-74
2023/05/29 00:39:23;;;;;;;12.02;5.57;;;10.80;99.90;;;;;;5041074;28;20025;-74
2023/05/29 00:41:50;;;;;;;9.10;5.38;;;10.70;99.90;;;;;;5042921;28;20041;-74
2023/05/29 00:44:18;;;;;;;9.80;6.00;;;10.80;99.90;;;;;;5041660;28;20030;-74
2023/05/29 00:46:44;;;;;;;10.10;6.88;;;10.80;99.90;;;;;;5042897;28;20033;-75
2023/05/29 00:49:11;;;;;;;8.98;6.00;;;10.80;99.90;;;;;;5041561;28;20097;-74
2023/05/29 00:51:37;;;;;;;9.57;5.57;;;10.80;99.90;;;;;;5041079;28;20075;-74
2023/05/29 00:54:06;;;;;;;10.38;6.60;;;10.80;99.90;;;;;;5039780;28;20034;-75
2023/05/29 00:56:32;;;;;;;13.05;6.32;;;10.70;99.90;;;;;;5041461;28;20155;-75
2023/05/29 00:58:58;;;;;;;9.80;6.15;;;10.60;99.90;;;;;;5042488;28;20155;-74
2023/05/29 01:01:24;;;;;;;9.98;6.00;;;10.50;99.90;;;;;;5038552;28;20461;-74
2023/05/29 01:03:53;;;;;;;9.02;5.68;;;10.60;99.90;;;;;;5037216;28;20362;-73
2023/05/29 01:06:19;;;;;;;10.70;5.78;;;10.50;99.90;;;;;;5037297;28;20527;-73
2023/05/29 01:08:45;;;;;;;9.40;5.40;;;10.40;99.90;;;;;;5037310;28;20034;-73
2023/05/29 01:11:36;;;;;;;10.50;6.50;;;10.40;99.90;;;;;;5037442;28;20036;-73
2023/05/29 01:14:09;;;;;;;11.77;5.78;;;10.40;99.90;;;;;;5037485;28;20032;-73
2023/05/29 01:16:51;;;;;;;10.77;5.40;;;10.40;99.90;;;;;;5036998;28;20038;-73
2023/05/29 01:19:24;;;;;;;10.23;5.90;;;10.40;99.90;;;;;;5037384;28;20033;-73
2023/05/29 01:21:58;;;;;;;9.27;5.72;;;10.40;99.90;;;;;;5037837;28;20432;-73
2023/05/29 01:24:35;;;;;;;10.45;6.00;;;10.20;99.90;;;;;;5037053;28;20045;-73
2023/05/29 01:27:04;;;;;;;10.98;6.25;;;10.30;99.90;;;;;;5036517;28;20036;-73
2023/05/29 01:29:34;;;;;;;8.23;5.75;;;10.00;99.90;;;;;;5037685;28;20038;-73
2023/05/29 01:32:01;;;;;;;13.55;5.22;;;9.80;99.90;;;;;;5036157;28;20390;-73
2023/05/29 01:34:28;;;;;;;8.95;5.88;;;9.60;99.90;;;;;;5036208;28;20037;-73
2023/05/29 01:36:53;;;;;;;10.07;5.65;;;9.70;99.90;;;;;;5036619;28;20057;-72
2023/05/29 01:39:21;;;;;;;10.38;5.65;;;9.70;99.90;;;;;;5019794;28;20025;-74
2023/05/29 01:41:47;;;;;;;10.85;5.50;;;9.80;99.90;;;;;;5036579;28;20113;-73
2023/05/29 01:44:14;;;;;;;9.60;5.38;;;9.90;99.90;;;;;;5036578;28;20029;-73
2023/05/29 01:46:41;;;;;;;9.00;5.43;;;9.90;99.90;;;;;;5036173;28;20030;-73
2023/05/29 01:49:08;;;;;;;8.80;4.32;;;10.00;99.90;;;;;;5036207;28;20037;-73
2023/05/29 01:51:35;;;;;;;9.70;5.28;;;10.00;99.90;;;;;;5035941;28;20056;-74
2023/05/29 01:54:01;;;;;;;6.43;4.40;;;9.90;99.90;;;;;;5033841;28;20041;-73
2023/05/29 01:56:28;;;;;;;10.88;4.47;;;9.70;99.90;;;;;;5016723;28;20379;-73
2023/05/29 01:58:58;;;;;;;6.55;4.80;;;9.70;99.90;;;;;;5016761;28;20030;-73
2023/05/29 02:01:24;;;;;;;8.07;4.40;;;9.60;99.90;;;;;;5016511;28;20130;-73
2023/05/29 02:03:51;;;;;;;7.22;4.25;;;9.70;99.90;;;;;;5020411;28;20489;-73
2023/05/29 02:06:16;;;;;;;6.47;4.40;;;9.80;99.90;;;;;;5021013;28;20030;-73
2023/05/29 02:08:42;;;;;;;7.05;4.43;;;9.80;99.90;;;;;;5020347;28;20038;-73
2023/05/29 02:11:08;;;;;;;7.38;4.40;;;9.80;99.90;;;;;;5020706;28;20029;-73
2023/05/29 02:13:34;;;;;;;7.80;4.28;;;9.80;99.90;;;;;;5020791;28;20526;-73
2023/05/29 02:15:59;;;;;;;7.05;4.47;;;9.70;99.90;;;;;;5020670;28;20036;-73
2023/05/29 02:18:25;;;;;;;7.72;3.83;;;9.70;99.90;;;;;;5021287;28;20077;-74
2023/05/29 02:20:51;;;;;;;8.82;4.13;;;9.80;99.90;;;;;;5020343;28;20034;-74
2023/05/29 02:23:16;;;;;;;6.25;3.83;;;9.70;99.90;;;;;;5020773;28;20116;-75
2023/05/29 02:25:42;;;;;;;6.68;4.00;;;9.60;99.90;;;;;;5019737;28;20025;-74
2023/05/29 02:28:08;;;;;;;8.00;4.05;;;9.60;99.90;;;;;;5020573;28;20111;-73
2023/05/29 02:30:35;;;;;;;5.82;3.88;;;9.60;99.90;;;;;;5018811;28;20065;-73
2023/05/29 02:33:00;;;;;;;12.45;4.70;;;9.60;99.90;;;;;;5020289;28;20022;-74
2023/05/29 02:35:26;;;;;;;5.88;4.28;;;9.50;99.90;;;;;;5020048;28;20048;-74
2023/05/29 02:37:52;;;;;;;8.50;4.70;;;9.50;99.90;;;;;;5020414;28;20554;-73
2023/05/29 02:40:19;;;;;;;5.68;3.47;;;9.40;99.90;;;;;;5020298;28;20030;-73
2023/05/29 02:42:45;;;;;;;8.23;4.65;;;9.30;99.90;;;;;;5018772;28;20385;-73
2023/05/29 02:45:10;;;;;;;8.75;4.82;;;9.30;99.90;;;;;;5019174;28;20029;-74
2023/05/29 02:47:36;;;;;;;8.20;4.68;;;9.30;99.90;;;;;;5019584;28;20112;-73
2023/05/29 02:50:03;;;;;;;6.90;3.80;;;9.10;99.90;;;;;;5019298;28;20049;-73
2023/05/29 02:52:30;;;;;;;8.15;4.05;;;9.10;99.90;;;;;;5019825;28;20026;-73
2023/05/29 02:54:56;;;;;;;10.63;4.43;;;9.10;99.90;;;;;;5020663;28;20041;-73
2023/05/29 02:57:22;;;;;;;8.85;3.88;;;9.20;99.90;;;;;;5020068;28;20025;-73
2023/05/29 02:59:49;;;;;;;6.75;4.05;;;9.10;99.90;;;;;;5020438;28;20359;-73
2023/05/29 03:02:14;;;;;;;7.50;4.15;;;9.00;99.90;;;;;;5018470;28;20045;-73
2023/05/29 03:04:40;;;;;;;7.35;4.10;;;8.90;99.90;;;;;;5020320;28;20029;-73
2023/05/29 03:07:06;;;;;;;8.68;4.78;;;8.80;99.90;;;;;;5020541;28;20077;-73
2023/05/29 03:09:35;;;;;;;7.93;4.15;;;8.90;99.90;;;;;;5020178;28;20088;-73
2023/05/29 03:12:01;;;;;;;7.85;4.80;;;9.00;99.90;;;;;;5020282;28;20021;-73
2023/05/29 03:14:27;;;;;;;8.85;4.40;;;8.90;99.90;;;;;;5019865;28;20108;-73
2023/05/29 03:16:53;;;;;;;7.63;4.00;;;9.00;99.90;;;;;;5020581;28;20486;-74
2023/05/29 03:19:19;;;;;;;5.78;3.88;;;8.90;99.90;;;;;;5020257;28;20359;-73
2023/05/29 03:21:45;;;;;;;8.77;4.35;;;8.80;99.90;;;;;;5019952;28;20164;-73
2023/05/29 03:24:13;;;;;;;6.78;4.32;;;8.80;99.90;;;;;;5020937;28;20060;-74
2023/05/29 03:26:39;;;;;;;6.70;4.05;;;8.90;99.90;;;;;;5020589;28;20045;-73
2023/05/29 03:29:05;;;;;;;6.93;4.45;;;8.80;99.90;;;;;;5019725;28;20075;-73
2023/05/29 03:31:31;;;;;;;6.97;4.20;;;8.80;99.90;;;;;;5019546;28;20100;-74
2023/05/29 03:33:58;;;;;;;7.35;4.40;;;8.70;99.90;;;;;;5020845;28;20030;-73
2023/05/29 03:36:23;;;;;;;7.78;4.03;;;8.70;99.90;;;;;;5020045;28;20046;-74
2023/05/29 03:38:49;;;;;;;8.82;4.65;;;8.80;99.90;;;;;;5001941;28;20462;-74
2023/05/29 03:41:15;;;;;;;6.10;3.80;;;8.80;99.90;;;;;;5019956;28;20061;-73
2023/05/29 03:43:40;;;;;;;5.75;4.07;;;8.80;99.90;;;;;;5020672;28;20069;-73
2023/05/29 03:46:06;;;;;;;10.93;4.88;;;8.70;99.90;;;;;;5020038;28;20029;-74
2023/05/29 03:48:31;;;;;;;11.27;4.35;;;8.70;99.90;;;;;;5020075;28;20041;-72
2023/05/29 03:50:57;;;;;;;8.70;4.38;;;8.80;99.90;;;;;;5019683;28;20113;-74
2023/05/29 03:53:22;;;;;;;7.50;4.25;;;8.90;99.90;;;;;;5019852;28;20470;-74
2023/05/29 03:55:48;;;;;;;7.60;4.38;;;8.90;99.90;;;;;;5020010;28;20041;-74
2023/05/29 03:58:14;;;;;;;7.97;4.22;;;8.90;99.90;;;;;;5019153;28;20114;-73
2023/05/29 04:00:40;;;;;;;8.10;4.05;;;9.00;99.90;;;;;;5019089;28;20070;-73
2023/05/29 04:03:06;;;;;;;8.23;4.30;;;8.90;99.90;;;;;;5019920;28;20026;-73
2023/05/29 04:05:31;;;;;;;6.50;3.80;;;9.00;99.90;;;;;;5019315;28;20037;-73
2023/05/29 04:07:57;;;;;;;5.40;3.30;;;8.90;99.90;;;;;;5018526;28;20057;-73
2023/05/29 04:10:24;;;;;;;5.63;3.92;;;9.00;99.90;;;;;;5019577;28;20120;-73
2023/05/29 04:12:49;;;;;;;6.43;3.85;;;8.90;99.90;;;;;;5018959;28;20022;-73
2023/05/29 04:15:15;;;;;;;6.32;3.47;;;8.80;99.90;;;;;;5018845;28;20049;-73
2023/05/29 04:17:41;;;;;;;5.88;3.55;;;8.80;99.90;;;;;;5018452;28;20034;-73
2023/05/29 04:20:08;;;;;;;6.40;3.60;;;8.80;99.90;;;;;;5019311;28;20037;-74
2023/05/29 04:22:37;;;;;;;6.95;3.47;;;8.70;99.90;;;;;;5002688;28;20386;-74
2023/05/29 04:25:04;;;;;;;7.18;3.55;;;8.80;99.90;;;;;;5018266;28;20026;-74
2023/05/29 04:27:32;;;;;;;6.55;4.10;;;8.80;99.90;;;;;;5022419;28;20030;-74
2023/05/29 04:29:58;;;;;;;7.03;4.05;;;8.80;99.90;;;;;;5021301;28;20385;-73
2023/05/29 04:32:24;;;;;;;6.50;3.90;;;9.00;99.90;;;;;;5037792;28;20049;-74
2023/05/29 04:34:51;;;;;;;8.00;4.20;;;9.00;99.90;;;;;;5038357;28;20389;-73
2023/05/29 04:37:17;;;;;;;7.00;4.53;;;9.10;99.90;;;;;;5038551;28;20079;-73
2023/05/29 04:39:43;;;;;;;10.30;4.50;;;9.10;99.90;;;;;;5038856;28;20025;-72
2023/05/29 04:42:09;;;;;;;9.50;4.55;;;9.30;99.90;;;;;;5039263;28;20061;-73
2023/05/29 04:44:34;;;;;;;8.23;4.72;;;9.40;99.90;;;;;;5038147;28;20110;-73
2023/05/29 04:47:03;;;;;;;8.40;5.07;;;9.60;99.90;;;;;;5037695;28;20108;-73
2023/05/29 04:49:31;;;;;;;7.15;4.47;;;9.70;99.90;;;;;;5001344;28;20080;-72
2023/05/29 04:52:00;;;;;;;8.75;4.43;;;9.70;99.90;;;;;;5018788;28;20037;-72
2023/05/29 04:54:25;;;;;;;8.60;4.05;;;9.80;99.90;;;;;;5028684;28;20033;-73
2023/05/29 04:56:51;;;;;;;7.55;4.57;;;9.90;99.90;;;;;;5037555;28;20036;-72
2023/05/29 04:59:17;;;;;;;7.78;4.18;;;10.10;99.90;;;;;;5038540;28;20033;-73
2023/05/29 05:01:43;;;;;;;6.93;4.20;;;10.30;99.90;;;;;;5017400;28;20038;-74
2023/05/29 05:04:09;;;;;;;7.88;4.18;;;10.30;99.90;;;;;;5017561;28;20402;-72
2023/05/29 05:06:35;;;;;;;7.78;4.82;;;10.40;99.90;;;;;;5025906;28;20046;-73
2023/05/29 05:09:01;;;;;;;7.00;3.47;;;10.60;99.90;;;;;;5036613;28;20501;-75
2023/05/29 05:11:26;;;;;;;6.50;4.07;;;10.70;99.90;;;;;;5036430;28;20188;-75
2023/05/29 05:13:52;;;;;;;10.60;4.43;;;10.80;99.90;;;;;;5037094;28;20045;-74
2023/05/29 05:16:18;;;;;;;6.80;4.00;;;10.90;99.90;;;;;;5036871;28;20095;-73
2023/05/29 05:18:44;;;;;;;11.25;4.70;;;11.10;99.90;;;;;;5037151;28;20039;-75
2023/05/29 05:21:10;;;;;;;10.73;4.70;;;11.30;99.90;;;;;;5035620;28;20033;-74
2023/05/29 05:23:36;;;;;;;6.63;4.63;;;11.40;99.90;;;;;;5036621;28;20030;-73
2023/05/29 05:26:01;;;;;;;7.93;4.68;;;11.30;99.90;;;;;;5056071;28;20025;-74
2023/05/29 05:28:27;;;;;;;8.63;4.95;;;11.30;99.90;;;;;;5050330;28;20496;-74
2023/05/29 05:30:52;;;;;;;7.07;4.63;;;11.40;99.90;;;;;;5036095;28;20049;-73
2023/05/29 05:33:18;;;;;;;8.85;5.32;;;11.60;99.90;;;;;;5036665;28;20026;-73
2023/05/29 05:35:44;;;;;;;9.27;5.13;;;11.90;99.90;;;;;;5035460;28;20079;-74
2023/05/29 05:38:09;;;;;;;8.27;4.65;;;12.10;99.90;;;;;;5016431;28;20025;-73
2023/05/29 05:40:35;;;;;;;9.38;4.85;;;12.20;99.90;;;;;;5016513;28;20348;-73
2023/05/29 05:43:00;;;;;;;7.53;4.50;;;12.20;99.90;;;;;;5017324;28;20457;-74
2023/05/29 05:45:26;;;;;;;7.80;4.13;;;12.40;99.90;;;;;;5028288;28;20214;-73
2023/05/29 05:47:52;;;;;;;9.60;4.95;;;12.60;99.90;;;;;;5035495;28;20386;-73
2023/05/29 05:50:17;;;;;;;8.90;4.50;;;12.80;99.90;;;;;;5035621;28;20061;-75
2023/05/29 05:52:43;;;;;;;7.07;4.30;;;13.10;99.90;;;;;;5036505;28;20363;-74
2023/05/29 05:55:09;;;;;;;7.90;4.40;;;13.30;99.90;;;;;;5035831;28;20033;-73
2023/05/29 05:57:35;;;;;;;6.35;4.13;;;13.50;99.90;;;;;;5036245;28;20079;-74
2023/05/29 06:00:11;;;;;;;9.82;4.97;;;13.70;99.90;;;;;;5035921;28;20382;-75
2023/05/29 06:02:37;;;;;;;8.15;4.63;;;13.80;99.90;;;;;;5035704;28;20486;-75
2023/05/29 06:05:03;;;;;;;9.95;4.80;;;14.20;99.90;;;;;;5035538;28;20037;-74
2023/05/29 06:07:30;;;;;;;10.05;4.80;;;14.40;99.90;;;;;;5036198;28;20465;-73
2023/05/29 06:09:55;;;;;;;8.80;4.80;;;14.60;99.90;;;;;;5019050;28;20061;-74
2023/05/29 06:12:21;;;;;;;9.43;4.40;;;14.80;99.90;;;;;;5035801;28;20067;-74
2023/05/29 06:14:47;;;;;;;8.38;4.88;;;15.10;99.90;;;;;;5035807;28;20108;-74
2023/05/29 06:17:13;;;;;;;6.95;3.88;;;15.30;99.90;;;;;;5036205;28;20521;-74
2023/05/29 06:19:38;;;;;;;7.20;4.25;;;15.50;99.90;;;;;;5036700;28;20036;-75
2023/05/29 06:22:05;;;;;;;9.55;4.68;;;15.70;99.90;;;;;;5020687;28;20369;-75
2023/05/29 06:24:30;;;;;;;8.18;4.38;;;15.80;99.90;;;;;;5037126;28;20037;-73
2023/05/29 06:26:56;;;;;;;7.72;4.22;;;15.80;99.90;;;;;;5034662;28;20032;-74
2023/05/29 06:29:21;;;;;;;8.43;4.70;;;15.80;99.90;;;;;;5035627;28;20069;-74
2023/05/29 06:31:47;;;;;;;5.13;4.05;;;15.80;99.90;;;;;;5021824;28;20044;-74
2023/05/29 06:34:13;;;;;;;7.50;4.07;;;15.90;99.90;;;;;;5024592;28;20077;-75
2023/05/29 06:36:40;;;;;;;7.55;4.40;;;16.00;99.90;;;;;;5035845;28;20025;-74
2023/05/29 06:39:05;;;;;;;8.75;4.28;;;16.20;99.90;;;;;;5034874;28;20021;-74
2023/05/29 06:41:31;;;;;;;6.72;4.43;;;16.20;99.90;;;;;;5038741;28;20457;-74
2023/05/29 06:43:57;;;;;;;7.60;4.32;;;16.40;99.90;;;;;;5055438;28;20419;-75
2023/05/29 06:46:22;;;;;;;8.68;4.18;;;16.50;99.90;;;;;;5055567;28;20032;-75
2023/05/29 06:48:48;;;;;;;7.15;4.50;;;16.50;99.90;;;;;;5045064;28;20469;-74
2023/05/29 06:51:14;;;;;;;6.63;4.30;;;16.70;99.90;;;;;;5038688;28;20033;-75
2023/05/29 06:53:40;;;;;;;7.10;4.00;;;16.90;99.90;;;;;;5038453;28;20053;-75
2023/05/29 06:56:06;;;;;;;8.85;4.30;;;17.00;99.90;;;;;;5038906;28;20068;-75
2023/05/29 06:58:32;;;;;;;9.23;4.07;;;17.00;99.90;;;;;;5046762;28;20037;-74
2023/05/29 07:00:58;;;;;;;8.20;4.05;;;17.00;99.90;;;;;;5041299;28;20347;-75
2023/05/29 07:03:27;;;;;;;8.07;4.30;;;17.10;99.90;;;;;;5038421;28;20029;-74
2023/05/29 07:05:56;;;;;;;5.95;3.92;;;17.20;99.90;;;;;;5026122;28;20041;-75
2023/05/29 07:08:23;;;;;;;6.82;3.85;;;17.30;99.90;;;;;;5018675;28;20054;-73
2023/05/29 07:10:49;;;;;;;7.40;4.07;;;17.30;99.90;;;;;;5018691;28;20034;-74
2023/05/29 07:13:18;;;;;;;5.60;3.95;;;17.50;99.90;;;;;;5018748;28;20105;-74
2023/05/29 07:15:44;;;;;;;4.97;3.70;;;17.60;99.90;;;;;;5017421;28;20117;-74
2023/05/29 07:18:10;;;;;;;6.40;3.70;;;17.60;99.90;;;;;;5039338;28;20036;-74
2023/05/29 07:20:37;;;;;;;7.05;3.60;;;17.80;99.90;;;;;;5017677;28;20030;-75
2023/05/29 07:23:03;;;;;;;8.45;4.32;;;17.80;99.90;;;;;;5018420;28;20049;-74
2023/05/29 07:25:30;;;;;;;6.28;3.75;;;18.00;99.90;;;;;;5003167;28;20392;-74
2023/05/29 07:27:57;;;;;;;6.20;3.65;;;18.00;99.90;;;;;;5019966;28;20053;-75
2023/05/29 07:30:22;;;;;;;9.27;4.05;;;18.20;99.90;;;;;;5037204;28;20037;-74
2023/05/29 07:32:48;;;;;;;7.90;3.72;;;18.30;99.90;;;;;;5036969;28;20037;-74
2023/05/29 07:35:14;;;;;;;6.35;4.15;;;18.30;99.90;;;;;;5038798;28;20028;-74
2023/05/29 07:37:39;;;;;;;5.68;3.83;;;18.50;99.90;;;;;;5038150;28;20029;-74
2023/05/29 07:40:06;;;;;;;9.38;4.00;;;18.50;99.90;;;;;;5038944;28;20036;-74
2023/05/29 07:42:32;;;;;;;8.18;3.75;;;18.60;99.90;;;;;;5037928;28;20112;-73
2023/05/29 07:44:58;;;;;;;10.25;4.38;;;18.70;99.90;;;;;;5038667;28;20131;-73
2023/05/29 07:47:24;;;;;;;8.68;4.70;;;18.90;99.90;;;;;;5038544;28;20462;-73
2023/05/29 07:49:50;;;;;;;8.07;3.90;;;19.00;99.90;;;;;;5037896;28;20040;-75
2023/05/29 07:52:15;;;;;;;6.25;3.70;;;19.00;99.90;;;;;;5037361;28;20030;-74
2023/05/29 07:54:41;;;;;;;5.53;3.72;;;19.10;99.90;;;;;;5037832;28;20029;-74
2023/05/29 07:57:09;;;;;;;3.88;3.17;;;19.00;99.90;;;;;;5037389;28;20037;-73
2023/05/29 07:59:41;;;;;;;7.38;3.88;;;19.10;99.90;;;;;;5019490;28;20492;-74
2023/05/29 08:02:07;;;;;;;7.35;4.28;;;19.20;99.90;;;;;;5037430;28;20041;-74
2023/05/29 08:04:33;;;;;;;5.57;3.85;;;19.10;99.90;;;;;;5019691;28;20033;-73
2023/05/29 08:07:05;;;;;;;6.53;3.92;;;19.10;99.90;;;;;;5037350;28;20060;-75
2023/05/29 08:09:32;;;;;;;5.75;3.50;;;19.10;99.90;;;;;;5038278;28;20038;-73
2023/05/29 08:12:00;;;;;;;8.55;4.07;;;19.30;99.90;;;;;;5037791;28;20033;-73
2023/05/29 08:14:26;;;;;;;8.07;4.32;;;19.30;99.90;;;;;;5037511;28;20029;-75
2023/05/29 08:16:52;;;;;;;9.90;4.35;;;19.40;99.90;;;;;;5037051;28;20477;-74
2023/05/29 08:19:17;;;;;;;9.95;3.85;;;19.40;99.90;;;;;;5036928;28;20029;-73
2023/05/29 08:21:43;;;;;;;5.68;3.78;;;19.50;99.90;;;;;;5019965;28;20030;-73
2023/05/29 08:24:09;;;;;;;8.75;4.07;;;19.60;99.90;;;;;;5037744;28;20033;-73
2023/05/29 08:26:35;;;;;;;7.13;4.18;;;19.50;99.90;;;;;;5036829;28;20022;-74
2023/05/29 08:29:03;;;;;;;6.72;4.00;;;19.50;99.90;;;;;;5037355;28;20029;-74
2023/05/29 08:31:30;;;;;;;;;;;19.60;99.90;;;;;;5036369;28;20034;-73
2023/05/29 08:33:56;;;;;;;5.65;3.47;;;19.70;99.90;;;;;;5037356;28;19935;-73
2023/05/29 08:36:22;;;;;;;6.50;4.35;;;19.80;99.90;;;;;;5036507;28;20025;-73
2023/05/29 08:38:48;;;;;;;6.28;4.05;;;19.90;99.90;;;;;;5037441;28;20033;-73
2023/05/29 08:41:29;;;;;;;8.45;3.85;;;19.90;99.90;;;;;;5036364;28;20030;-73
2023/05/29 08:43:55;;;;;;;6.22;3.70;;;19.70;99.90;;;;;;5036972;28;20056;-72
2023/05/29 08:46:22;;;;;;;6.55;3.60;;;19.90;99.90;;;;;;5018844;28;20103;-73
2023/05/29 08:48:51;;;;;;;5.72;3.67;;;20.20;99.90;;;;;;5036452;28;20041;-75
2023/05/29 08:51:23;;;;;;;6.93;3.75;;;20.20;99.90;;;;;;5036340;28;20033;-71
2023/05/29 08:53:51;;;;;;;5.15;3.85;;;20.30;99.90;;;;;;5036052;28;20033;-73
2023/05/29 08:56:16;;;;;;;6.50;3.72;;;20.30;99.90;;;;;;5018006;28;20036;-74
2023/05/29 08:58:45;;;;;;;5.20;3.22;;;20.30;99.90;;;;;;5037027;28;20034;-73
2023/05/29 09:01:11;;;;;;;7.72;3.88;;;20.40;99.90;;;;;;5035938;28;20037;-73
2023/05/29 09:03:38;;;;;;;5.43;3.20;;;20.60;99.90;;;;;;5035819;28;20029;-76
2023/05/29 09:06:07;;;;;;;7.45;3.38;;;20.90;99.90;;;;;;5037046;28;20030;-76
2023/05/29 09:08:32;;;;;;;6.35;3.42;;;20.90;99.90;;;;;;5037820;28;20053;-73
2023/05/29 09:10:58;;;;;;;5.88;3.40;;;20.90;99.90;;;;;;5036104;28;20041;-74
2023/05/29 09:13:24;;;;;;;4.03;2.83;;;20.90;99.90;;;;;;5036604;28;20025;-74
2023/05/29 09:15:50;;;;;;;5.55;3.40;;;21.10;99.90;;;;;;5035421;28;20029;-74
2023/05/29 09:18:17;;;;;;;7.43;3.40;;;21.30;99.90;;;;;;5037193;28;20036;-75
2023/05/29 09:20:44;;;;;;;6.55;3.83;;;21.60;99.90;;;;;;5036788;28;20052;-74
2023/05/29 09:23:09;;;;;;;8.35;3.67;;;21.50;99.90;;;;;;5037886;28;20099;-74
2023/05/29 09:25:42;;;;;;;10.35;4.13;;;21.30;99.90;;;;;;5038637;28;20026;-74
2023/05/29 09:28:09;;;;;;;5.72;3.42;;;21.40;99.90;;;;;;5038035;28;20072;-74
2023/05/29 09:30:43;;;;;;;7.60;3.92;;;21.40;99.90;;;;;;5037248;28;20041;-76
2023/05/29 09:33:13;;;;;;;6.80;3.90;;;21.40;99.90;;;;;;5037829;28;20064;-75
2023/05/29 09:35:46;;;;;;;7.20;3.90;;;21.40;99.90;;;;;;5035886;28;20037;-74
2023/05/29 09:38:14;;;;;;;6.85;3.17;;;21.50;99.90;;;;;;5037218;28;20025;-75
2023/05/29 09:40:40;;;;;;;6.80;3.67;;;21.50;99.90;;;;;;5020613;28;20520;-75
2023/05/29 09:43:17;;;;;;;7.25;3.60;;;21.60;99.90;;;;;;5036443;28;20029;-73
2023/05/29 09:45:44;;;;;;;8.02;3.28;;;21.60;99.90;;;;;;5036230;28;20021;-74
2023/05/29 09:48:17;;;;;;;5.15;3.15;;;21.40;99.90;;;;;;5035494;28;20040;-74
2023/05/29 09:50:44;;;;;;;5.70;3.42;;;21.80;99.90;;;;;;5018666;28;20133;-75
2023/05/29 09:53:19;;;;;;;4.10;3.45;;;21.80;99.90;;;;;;5035957;28;20032;-74
2023/05/29 09:55:50;;;;;;;6.95;3.45;;;21.80;99.90;;;;;;5018440;28;20022;-75
2023/05/29 09:58:17;;;;;;;5.50;3.78;;;21.50;99.90;;;;;;5019731;28;20164;-74
2023/05/29 10:00:43;;;;;;;5.53;3.30;;;21.50;99.90;;;;;;5036014;28;20048;-75
2023/05/29 10:03:23;;;;;;;;;;;;;;;;;;;;;
2023/05/29 10:06:20;;;;;;;5.20;3.15;;;21.80;99.90;;;;;;5035325;28;20022;-73
2023/05/29 10:08:57;;;;;;;5.95;3.78;;;22.00;99.90;;;;;;5003777;28;20402;-73
2023/05/29 10:11:26;;;;;;;6.80;3.33;;;21.90;99.90;;;;;;5015482;28;20060;-73
2023/05/29 10:13:52;;;;;;;6.00;3.05;;;21.90;99.90;;;;;;5016582;28;20030;-74
2023/05/29 10:16:33;;;;;;;4.68;3.10;;;21.90;99.90;;;;;;5017844;28;20029;-75
2023/05/29 10:19:19;;;;;;;6.28;3.05;;;22.00;99.90;;;;;;5018991;28;20026;-74
2023/05/29 10:21:49;;;;;;;6.32;3.55;;;21.80;99.90;;;;;;5017469;28;20053;-75
2023/05/29 10:24:23;;;;;;;7.35;3.20;;;21.70;99.90;;;;;;5022827;28;20049;-75
2023/05/29 10:27:06;;;;;;;5.10;3.17;;;21.80;99.90;;;;;;5022028;28;20024;-75
2023/05/29 10:30:02;;;;;;;6.50;3.13;;;21.70;99.90;;;;;;5021166;28;20029;-77
2023/05/29 10:32:40;;;;;;;5.03;3.35;;;22.20;99.90;;;;;;5020986;28;20041;-73
2023/05/29 10:35:16;;;;;;;4.38;2.88;;;22.10;99.90;;;;;;5019507;28;20021;-75
2023/05/29 10:38:12;;;;;;;5.32;3.50;;;22.20;99.90;;;;;;5019891;28;20026;-74
2023/05/29 10:40:47;;;;;;;5.28;3.10;;;22.40;99.90;;;;;;5018681;28;20029;-74
2023/05/29 10:47:14;;;;;;;;;;;;;;;;;;;;;
2023/05/29 10:50:13;;;;;;;5.00;2.90;;;22.20;99.90;;;;;;5019279;28;20033;-74
2023/05/29 10:55:48;;;;;;;4.90;3.30;;;22.50;99.90;;;;;;5011364;28;20038;-74
2023/05/29 10:58:18;;;;;;;4.38;3.05;;;22.60;99.90;;;;;;5018740;28;20478;-73
2023/05/29 11:00:58;;;;;;;4.57;3.13;;;22.60;99.90;;;;;;5011342;28;20382;-73
2023/05/29 11:04:24;;;;;;;4.32;2.67;;;22.70;99.90;;;;;;5029101;28;20426;-74
2023/05/29 11:06:59;;;;;;;5.90;2.90;;;22.70;99.90;;;;;;5014708;28;20053;-74
2023/05/29 11:09:54;;;;;;;6.82;3.30;;;22.70;99.90;;;;;;5037314;28;20033;-74
2023/05/29 11:13:05;;;;;;;4.95;2.92;;;22.50;99.90;;;;;;5021369;28;20033;-74
2023/05/29 11:15:55;;;;;;;4.38;2.63;;;22.40;99.90;;;;;;5037547;28;20029;-74
2023/05/29 11:18:48;;;;;;;6.20;3.20;;;22.60;99.90;;;;;;5022055;28;20034;-74
2023/05/29 11:25:24;;;;;;;3.53;2.65;;;23.40;99.90;;;;;;4980720;28;20040;-75
2023/05/29 11:28:04;;;;;;;3.80;2.85;;;23.10;99.90;;;;;;5048277;28;20500;-73
2023/05/29 11:31:04;;;;;;;5.55;3.30;;;23.40;99.90;;;;;;5055956;28;20028;-73
2023/05/29 11:34:02;;;;;;;6.55;2.95;;;23.20;99.90;;;;;;5040761;28;20067;-74
2023/05/29 11:36:51;;;;;;;7.53;3.00;;;23.10;99.90;;;;;;5035186;28;20056;-74
2023/05/29 11:39:26;;;;;;;4.35;2.85;;;23.20;99.90;;;;;;5007727;28;20129;-74
2023/05/29 11:42:24;;;;;;;4.25;3.10;;;23.30;99.90;;;;;;5056021;28;20129;-75
2023/05/29 11:45:09;;;;;;;5.18;2.80;;;23.20;99.90;;;;;;5056102;28;20029;-74
2023/05/29 11:48:19;;;;;;;5.65;3.00;;;23.20;99.90;;;;;;5055902;28;20025;-73
2023/05/29 11:50:52;;;;;;;3.60;2.60;;;23.20;99.90;;;;;;5055862;28;20037;-73
2023/05/29 11:53:18;;;;;;;3.97;2.88;;;23.50;99.90;;;;;;5055642;28;20037;-74
2023/05/29 11:56:18;;;;;;;;;;;;;;;;;;;;;
2023/05/29 11:58:45;;;;;;;4.45;2.80;;;23.20;99.90;;;;;;5011916;28;20045;-73
2023/05/29 12:01:19;;;;;;;4.03;2.65;;;23.30;99.90;;;;;;5015035;28;20486;-73
2023/05/29 12:03:55;;;;;;;8.60;2.97;;;23.40;99.90;;;;;;4997867;28;20057;-74
2023/05/29 12:07:10;;;;;;;3.97;2.60;;;23.60;99.90;;;;;;4969745;28;1331006;-73
2023/05/29 12:09:39;;;;;;;6.78;2.80;;;23.40;99.90;;;;;;5013185;28;20172;-74
2023/05/29 12:12:39;;;;;;;3.80;2.87;;;23.60;99.90;;;;;;5016063;28;20034;-73
2023/05/29 12:15:40;;;;;;;5.30;3.08;;;23.50;99.90;;;;;;5016595;28;20032;-73
2023/05/29 12:18:34;;;;;;;4.22;2.55;;;23.30;99.90;;;;;;5016192;28;20041;-73
2023/05/29 12:21:17;;;;;;;4.28;2.70;;;23.30;99.90;;;;;;4998933;28;20022;-74
2023/05/29 12:23:57;;;;;;;5.57;2.95;;;23.50;99.90;;;;;;5017150;28;20371;-74
2023/05/29 12:27:06;;;;;;;;;;;;;;;;;;;;;
2023/05/29 12:30:15;;;;;;;4.90;2.50;;;23.60;99.90;;;;;;5011446;28;20129;-75
2023/05/29 12:32:45;;;;;;;4.50;2.70;;;23.50;99.90;;;;;;5007926;28;20406;-74
2023/05/29 12:35:25;;;;;;;6.03;3.53;;;23.80;99.90;;;;;;4998850;28;20030;-73
2023/05/29 12:38:26;;;;;;;4.90;2.90;;;23.90;99.90;;;;;;4999157;28;20026;-74
2023/05/29 12:41:48;;;;;;;;;;;;;;;;;;;;;
2023/05/29 12:44:42;;;;;;;4.05;2.70;;;23.70;99.90;;;;;;4997754;28;20033;-74
2023/05/29 12:47:59;;;;;;;4.60;2.80;;;23.60;99.90;;;;;;5016687;28;20040;-73
2023/05/29 12:50:53;;;;;;;5.20;3.08;;;23.60;99.90;;;;;;4950868;29;20043;-74
2023/05/29 12:54:09;;;;;;;3.65;2.50;;;23.80;99.90;;;;;;4955770;29;20031;-74
2023/05/29 12:56:41;;;;;;;4.00;2.72;;;23.70;99.90;;;;;;4955100;29;20063;-74
2023/05/29 13:02:30;;;;;;;;;;;;;;;;;;;;;
2023/05/29 13:05:02;;;;;;;4.53;3.10;;;23.70;99.90;;;;;;5017128;28;20032;-74
2023/05/29 13:07:46;;;;;;;4.00;2.63;;;23.70;99.90;;;;;;4998031;28;20058;-74
2023/05/29 13:10:34;;;;;;;5.43;2.80;;;23.80;99.90;;;;;;5006742;28;20069;-75
2023/05/29 13:13:03;;;;;;;4.68;2.40;;;23.80;99.90;;;;;;5036481;28;20021;-74
2023/05/29 13:15:55;;;;;;;4.78;3.08;;;23.80;99.90;;;;;;5035483;28;20104;-74
2023/05/29 13:18:36;;;;;;;4.13;2.55;;;23.70;99.90;;;;;;5035024;28;20033;-74
2023/05/29 13:21:08;;;;;;;3.38;2.83;;;23.60;99.90;;;;;;5017635;28;20029;-74
2023/05/29 13:24:10;;;;;;;5.63;2.58;;;23.60;99.90;;;;;;5034762;28;20411;-73
2023/05/29 13:27:28;;;;;;;3.35;2.72;;;23.90;99.90;;;;;;5030891;28;20397;-75
2023/05/29 13:30:07;;;;;;;5.13;3.17;;;23.80;99.90;;;;;;4999592;28;20037;-73